sensor_id;sensor_type;location;lat;lon;timestamp;temperature;humidity
69731;SHT31;56996;48.138;11.538;2023-08-06T00:01:38;16.57;79.93
69731;SHT31;56996;48.138;11.538;2023-08-06T00:04:05;16.57;79.86
69731;SHT31;56996;48.138;11.538;2023-08-06T00:06:32;16.57;79.69
69731;SHT31;56996;48.138;11.538;2023-08-06T00:08:58;16.56;79.74
69731;SHT31;56996;48.138;11.538;2023-08-06T00:11:25;16.55;79.70
69731;SHT31;56996;48.138;11.538;2023-08-06T00:13:52;16.55;79.77
69731;SHT31;56996;48.138;11.538;2023-08-06T00:16:19;16.54;80.06
69731;SHT31;56996;48.138;11.538;2023-08-06T00:18:45;16.54;80.09
69731;SHT31;56996;48.138;11.538;2023-08-06T00:21:12;16.52;79.86
69731;SHT31;56996;48.138;11.538;2023-08-06T00:23:39;16.52;79.75
69731;SHT31;56996;48.138;11.538;2023-08-06T00:26:07;16.52;79.65
69731;SHT31;56996;48.138;11.538;2023-08-06T00:28:34;16.51;79.51
69731;SHT31;56996;48.138;11.538;2023-08-06T00:31:01;16.44;79.27
69731;SHT31;56996;48.138;11.538;2023-08-06T00:33:27;16.38;79.14
69731;SHT31;56996;48.138;11.538;2023-08-06T00:35:54;16.35;78.96
69731;SHT31;56996;48.138;11.538;2023-08-06T00:38:21;16.35;78.72
69731;SHT31;56996;48.138;11.538;2023-08-06T00:40:48;16.33;78.27
69731;SHT31;56996;48.138;11.538;2023-08-06T00:43:15;16.27;78.06
69731;SHT31;56996;48.138;11.538;2023-08-06T00:45:42;16.14;78.20
69731;SHT31;56996;48.138;11.538;2023-08-06T00:48:09;16.08;78.48
69731;SHT31;56996;48.138;11.538;2023-08-06T00:50:37;16.08;78.78
69731;SHT31;56996;48.138;11.538;2023-08-06T00:53:04;16.12;78.89
69731;SHT31;56996;48.138;11.538;2023-08-06T00:55:31;16.16;78.76
69731;SHT31;56996;48.138;11.538;2023-08-06T00:57:59;16.16;78.73
69731;SHT31;56996;48.138;11.538;2023-08-06T01:00:26;16.13;78.68
69731;SHT31;56996;48.138;11.538;2023-08-06T01:02:53;16.13;78.53
69731;SHT31;56996;48.138;11.538;2023-08-06T01:05:20;16.12;78.23
69731;SHT31;56996;48.138;11.538;2023-08-06T01:13:33;15.97;78.27
69731;SHT31;56996;48.138;11.538;2023-08-06T01:16:15;15.92;78.44
69731;SHT31;56996;48.138;11.538;2023-08-06T01:18:44;15.88;78.61
69731;SHT31;56996;48.138;11.538;2023-08-06T01:21:16;15.82;78.78
69731;SHT31;56996;48.138;11.538;2023-08-06T01:23:44;15.76;78.93
69731;SHT31;56996;48.138;11.538;2023-08-06T01:26:33;15.70;79.08
69731;SHT31;56996;48.138;11.538;2023-08-06T01:29:14;15.64;79.15
69731;SHT31;56996;48.138;11.538;2023-08-06T01:31:48;15.63;79.01
69731;SHT31;56996;48.138;11.538;2023-08-06T01:34:19;15.61;79.12
69731;SHT31;56996;48.138;11.538;2023-08-06T01:36:50;15.59;79.17
69731;SHT31;56996;48.138;11.538;2023-08-06T01:39:17;15.61;79.46
69731;SHT31;56996;48.138;11.538;2023-08-06T01:41:47;15.62;79.30
69731;SHT31;56996;48.138;11.538;2023-08-06T01:44:16;15.62;79.29
69731;SHT31;56996;48.138;11.538;2023-08-06T01:46:43;15.61;79.41
69731;SHT31;56996;48.138;11.538;2023-08-06T01:49:09;15.61;79.60
69731;SHT31;56996;48.138;11.538;2023-08-06T01:51:36;15.62;79.50
69731;SHT31;56996;48.138;11.538;2023-08-06T01:54:03;15.61;79.42
69731;SHT31;56996;48.138;11.538;2023-08-06T01:56:29;15.58;79.59
69731;SHT31;56996;48.138;11.538;2023-08-06T01:58:57;15.53;79.90
69731;SHT31;56996;48.138;11.538;2023-08-06T02:01:23;15.50;80.03
69731;SHT31;56996;48.138;11.538;2023-08-06T02:03:50;15.47;79.87
69731;SHT31;56996;48.138;11.538;2023-08-06T02:06:17;15.45;79.98
69731;SHT31;56996;48.138;11.538;2023-08-06T02:08:44;15.45;79.99
69731;SHT31;56996;48.138;11.538;2023-08-06T02:11:10;15.44;79.76
69731;SHT31;56996;48.138;11.538;2023-08-06T02:13:37;15.42;79.64
69731;SHT31;56996;48.138;11.538;2023-08-06T02:16:06;15.40;79.52
69731;SHT31;56996;48.138;11.538;2023-08-06T02:18:35;15.35;79.63
69731;SHT31;56996;48.138;11.538;2023-08-06T02:21:01;15.35;79.85
69731;SHT31;56996;48.138;11.538;2023-08-06T02:23:28;15.34;79.54
69731;SHT31;56996;48.138;11.538;2023-08-06T02:25:59;15.32;79.57
69731;SHT31;56996;48.138;11.538;2023-08-06T02:28:28;15.31;79.49
69731;SHT31;56996;48.138;11.538;2023-08-06T02:30:56;15.29;79.76
69731;SHT31;56996;48.138;11.538;2023-08-06T02:33:23;15.31;79.94
69731;SHT31;56996;48.138;11.538;2023-08-06T02:35:50;15.34;79.97
69731;SHT31;56996;48.138;11.538;2023-08-06T02:38:17;15.34;79.67
69731;SHT31;56996;48.138;11.538;2023-08-06T02:40:44;15.32;79.37
69731;SHT31;56996;48.138;11.538;2023-08-06T02:43:12;15.30;79.44
69731;SHT31;56996;48.138;11.538;2023-08-06T02:45:39;15.29;79.60
69731;SHT31;56996;48.138;11.538;2023-08-06T02:48:06;15.31;79.86
69731;SHT31;56996;48.138;11.538;2023-08-06T02:50:42;15.32;79.84
69731;SHT31;56996;48.138;11.538;2023-08-06T02:53:09;15.32;79.63
69731;SHT31;56996;48.138;11.538;2023-08-06T02:55:36;15.26;79.78
69731;SHT31;56996;48.138;11.538;2023-08-06T02:58:06;15.27;80.07
69731;SHT31;56996;48.138;11.538;2023-08-06T03:00:35;15.29;79.81
69731;SHT31;56996;48.138;11.538;2023-08-06T03:03:02;15.25;79.67
69731;SHT31;56996;48.138;11.538;2023-08-06T03:05:51;15.23;79.80
69731;SHT31;56996;48.138;11.538;2023-08-06T03:08:26;15.20;79.80
69731;SHT31;56996;48.138;11.538;2023-08-06T03:10:53;15.17;79.91
69731;SHT31;56996;48.138;11.538;2023-08-06T03:13:20;15.15;79.72
69731;SHT31;56996;48.138;11.538;2023-08-06T03:18:25;15.01;79.62
69731;SHT31;56996;48.138;11.538;2023-08-06T03:20:53;14.96;79.73
69731;SHT31;56996;48.138;11.538;2023-08-06T03:23:20;14.91;79.84
69731;SHT31;56996;48.138;11.538;2023-08-06T03:25:47;14.85;79.98
69731;SHT31;56996;48.138;11.538;2023-08-06T03:28:14;14.77;80.17
69731;SHT31;56996;48.138;11.538;2023-08-06T03:30:41;14.73;80.11
69731;SHT31;56996;48.138;11.538;2023-08-06T03:33:08;14.70;80.24
69731;SHT31;56996;48.138;11.538;2023-08-06T03:35:35;14.72;80.34
69731;SHT31;56996;48.138;11.538;2023-08-06T03:38:02;14.71;80.05
69731;SHT31;56996;48.138;11.538;2023-08-06T03:40:29;14.67;80.04
69731;SHT31;56996;48.138;11.538;2023-08-06T03:42:56;14.67;80.14
69731;SHT31;56996;48.138;11.538;2023-08-06T03:45:22;14.65;80.21
69731;SHT31;56996;48.138;11.538;2023-08-06T03:47:49;14.64;80.21
69731;SHT31;56996;48.138;11.538;2023-08-06T03:50:17;14.62;80.20
69731;SHT31;56996;48.138;11.538;2023-08-06T03:52:43;14.61;80.29
69731;SHT31;56996;48.138;11.538;2023-08-06T03:55:10;14.61;80.30
69731;SHT31;56996;48.138;11.538;2023-08-06T03:57:37;14.60;80.23
69731;SHT31;56996;48.138;11.538;2023-08-06T04:00:03;14.58;80.12
69731;SHT31;56996;48.138;11.538;2023-08-06T04:02:40;14.59;80.18
69731;SHT31;56996;48.138;11.538;2023-08-06T04:05:07;14.59;80.20
69731;SHT31;56996;48.138;11.538;2023-08-06T04:07:35;14.56;80.29
69731;SHT31;56996;48.138;11.538;2023-08-06T04:10:03;14.55;80.20
69731;SHT31;56996;48.138;11.538;2023-08-06T04:12:31;14.53;80.18
69731;SHT31;56996;48.138;11.538;2023-08-06T04:14:59;14.53;80.17
69731;SHT31;56996;48.138;11.538;2023-08-06T04:17:27;14.55;80.18
69731;SHT31;56996;48.138;11.538;2023-08-06T04:19:54;14.55;80.14
69731;SHT31;56996;48.138;11.538;2023-08-06T04:22:21;14.55;80.05
69731;SHT31;56996;48.138;11.538;2023-08-06T04:24:48;14.55;79.97
69731;SHT31;56996;48.138;11.538;2023-08-06T04:27:15;14.57;79.96
69731;SHT31;56996;48.138;11.538;2023-08-06T04:29:44;14.59;79.85
69731;SHT31;56996;48.138;11.538;2023-08-06T04:32:11;14.62;79.73
69731;SHT31;56996;48.138;11.538;2023-08-06T04:34:43;14.67;79.59
69731;SHT31;56996;48.138;11.538;2023-08-06T04:37:09;14.69;79.52
69731;SHT31;56996;48.138;11.538;2023-08-06T04:39:36;14.70;79.31
69731;SHT31;56996;48.138;11.538;2023-08-06T04:42:04;14.72;79.26
69731;SHT31;56996;48.138;11.538;2023-08-06T04:44:31;14.74;79.20
69731;SHT31;56996;48.138;11.538;2023-08-06T04:46:58;14.76;79.10
69731;SHT31;56996;48.138;11.538;2023-08-06T04:49:24;14.77;79.03
69731;SHT31;56996;48.138;11.538;2023-08-06T04:51:51;14.84;78.97
69731;SHT31;56996;48.138;11.538;2023-08-06T04:54:19;14.91;78.81
69731;SHT31;56996;48.138;11.538;2023-08-06T04:56:45;14.94;78.70
69731;SHT31;56996;48.138;11.538;2023-08-06T04:59:12;15.00;78.59
69731;SHT31;56996;48.138;11.538;2023-08-06T05:01:38;15.07;78.40
69731;SHT31;56996;48.138;11.538;2023-08-06T05:04:05;15.11;78.32
69731;SHT31;56996;48.138;11.538;2023-08-06T05:06:32;15.15;78.23
69731;SHT31;56996;48.138;11.538;2023-08-06T05:08:58;15.19;78.13
69731;SHT31;56996;48.138;11.538;2023-08-06T05:11:25;15.21;78.02
69731;SHT31;56996;48.138;11.538;2023-08-06T05:13:52;15.23;77.90
69731;SHT31;56996;48.138;11.538;2023-08-06T05:16:18;15.25;77.73
69731;SHT31;56996;48.138;11.538;2023-08-06T05:18:45;15.28;77.62
69731;SHT31;56996;48.138;11.538;2023-08-06T05:21:12;15.32;77.54
69731;SHT31;56996;48.138;11.538;2023-08-06T05:23:39;15.33;77.56
69731;SHT31;56996;48.138;11.538;2023-08-06T05:26:05;15.30;77.51
69731;SHT31;56996;48.138;11.538;2023-08-06T05:28:32;15.29;77.43
69731;SHT31;56996;48.138;11.538;2023-08-06T05:31:02;15.30;77.57
69731;SHT31;56996;48.138;11.538;2023-08-06T05:33:30;15.31;77.40
69731;SHT31;56996;48.138;11.538;2023-08-06T05:35:57;15.32;77.33
69731;SHT31;56996;48.138;11.538;2023-08-06T05:38:23;15.34;77.24
69731;SHT31;56996;48.138;11.538;2023-08-06T05:40:50;15.35;77.12
69731;SHT31;56996;48.138;11.538;2023-08-06T05:43:17;15.37;77.08
69731;SHT31;56996;48.138;11.538;2023-08-06T05:45:44;15.40;76.94
69731;SHT31;56996;48.138;11.538;2023-08-06T05:48:12;15.43;76.90
69731;SHT31;56996;48.138;11.538;2023-08-06T05:50:39;15.47;76.92
69731;SHT31;56996;48.138;11.538;2023-08-06T05:53:06;15.51;76.79
69731;SHT31;56996;48.138;11.538;2023-08-06T05:55:33;15.56;76.46
69731;SHT31;56996;48.138;11.538;2023-08-06T05:58:00;15.60;76.36
69731;SHT31;56996;48.138;11.538;2023-08-06T06:00:27;15.65;76.15
69731;SHT31;56996;48.138;11.538;2023-08-06T06:02:54;15.71;75.97
69731;SHT31;56996;48.138;11.538;2023-08-06T06:05:20;15.80;75.84
69731;SHT31;56996;48.138;11.538;2023-08-06T06:07:47;15.91;75.46
69731;SHT31;56996;48.138;11.538;2023-08-06T06:10:14;15.97;74.98
69731;SHT31;56996;48.138;11.538;2023-08-06T06:12:41;16.01;74.64
69731;SHT31;56996;48.138;11.538;2023-08-06T06:15:07;16.10;74.42
69731;SHT31;56996;48.138;11.538;2023-08-06T06:17:35;16.22;74.32
69731;SHT31;56996;48.138;11.538;2023-08-06T06:20:02;16.36;73.60
69731;SHT31;56996;48.138;11.538;2023-08-06T06:22:30;16.43;73.23
69731;SHT31;56996;48.138;11.538;2023-08-06T06:24:57;16.48;72.71
69731;SHT31;56996;48.138;11.538;2023-08-06T06:27:23;16.53;72.61
69731;SHT31;56996;48.138;11.538;2023-08-06T06:29:50;16.58;72.09
69731;SHT31;56996;48.138;11.538;2023-08-06T06:32:18;16.65;71.75
69731;SHT31;56996;48.138;11.538;2023-08-06T06:34:45;16.82;71.60
69731;SHT31;56996;48.138;11.538;2023-08-06T06:37:12;17.08;71.16
69731;SHT31;56996;48.138;11.538;2023-08-06T06:39:39;17.24;70.20
69731;SHT31;56996;48.138;11.538;2023-08-06T06:42:05;17.28;70.01
69731;SHT31;56996;48.138;11.538;2023-08-06T06:44:35;17.33;69.49
69731;SHT31;56996;48.138;11.538;2023-08-06T06:47:01;17.42;69.51
69731;SHT31;56996;48.138;11.538;2023-08-06T06:49:28;17.64;69.37
69731;SHT31;56996;48.138;11.538;2023-08-06T06:51:55;17.77;68.58
69731;SHT31;56996;48.138;11.538;2023-08-06T06:54:22;17.84;68.70
69731;SHT31;56996;48.138;11.538;2023-08-06T06:56:49;18.19;68.20
69731;SHT31;56996;48.138;11.538;2023-08-06T06:59:16;19.21;65.46
69731;SHT31;56996;48.138;11.538;2023-08-06T07:01:42;19.28;64.58
69731;SHT31;56996;48.138;11.538;2023-08-06T07:04:09;19.41;64.11
69731;SHT31;56996;48.138;11.538;2023-08-06T07:06:36;20.78;61.49
69731;SHT31;56996;48.138;11.538;2023-08-06T07:09:02;22.70;57.50
69731;SHT31;56996;48.138;11.538;2023-08-06T07:11:29;23.75;53.30
69731;SHT31;56996;48.138;11.538;2023-08-06T07:13:56;23.05;53.29
69731;SHT31;56996;48.138;11.538;2023-08-06T07:16:25;22.48;55.51
69731;SHT31;56996;48.138;11.538;2023-08-06T07:18:53;22.02;55.34
69731;SHT31;56996;48.138;11.538;2023-08-06T07:21:20;21.63;55.57
69731;SHT31;56996;48.138;11.538;2023-08-06T07:23:47;21.24;56.46
69731;SHT31;56996;48.138;11.538;2023-08-06T07:26:16;20.91;57.11
69731;SHT31;56996;48.138;11.538;2023-08-06T07:28:43;20.53;58.18
69731;SHT31;56996;48.138;11.538;2023-08-06T07:31:11;20.19;59.50
69731;SHT31;56996;48.138;11.538;2023-08-06T07:33:38;19.89;60.07
69731;SHT31;56996;48.138;11.538;2023-08-06T07:36:09;19.62;60.80
69731;SHT31;56996;48.138;11.538;2023-08-06T07:38:40;19.46;61.57
69731;SHT31;56996;48.138;11.538;2023-08-06T07:41:08;19.40;61.56
69731;SHT31;56996;48.138;11.538;2023-08-06T07:43:36;19.35;62.20
69731;SHT31;56996;48.138;11.538;2023-08-06T07:46:03;19.24;62.13
69731;SHT31;56996;48.138;11.538;2023-08-06T07:48:29;19.10;62.09
69731;SHT31;56996;48.138;11.538;2023-08-06T07:50:56;18.96;61.98
69731;SHT31;56996;48.138;11.538;2023-08-06T07:53:24;18.72;62.51
69731;SHT31;56996;48.138;11.538;2023-08-06T07:55:56;18.65;62.60
69731;SHT31;56996;48.138;11.538;2023-08-06T07:58:23;18.66;62.74
69731;SHT31;56996;48.138;11.538;2023-08-06T08:00:52;18.87;62.55
69731;SHT31;56996;48.138;11.538;2023-08-06T08:03:18;19.50;60.51
69731;SHT31;56996;48.138;11.538;2023-08-06T08:05:46;20.10;58.87
69731;SHT31;56996;48.138;11.538;2023-08-06T08:08:13;20.49;58.42
69731;SHT31;56996;48.138;11.538;2023-08-06T08:10:40;21.40;56.83
69731;SHT31;56996;48.138;11.538;2023-08-06T08:13:08;21.94;56.00
69731;SHT31;56996;48.138;11.538;2023-08-06T08:15:35;22.24;55.50
69731;SHT31;56996;48.138;11.538;2023-08-06T08:18:01;22.69;54.34
69731;SHT31;56996;48.138;11.538;2023-08-06T08:20:28;22.74;53.38
69731;SHT31;56996;48.138;11.538;2023-08-06T08:22:59;23.16;52.03
69731;SHT31;56996;48.138;11.538;2023-08-06T08:25:27;23.65;49.77
69731;SHT31;56996;48.138;11.538;2023-08-06T08:27:57;23.83;48.71
69731;SHT31;56996;48.138;11.538;2023-08-06T08:30:24;24.57;48.36
69731;SHT31;56996;48.138;11.538;2023-08-06T08:32:52;24.80;47.24
69731;SHT31;56996;48.138;11.538;2023-08-06T08:35:19;24.57;46.55
69731;SHT31;56996;48.138;11.538;2023-08-06T08:37:45;24.16;47.16
69731;SHT31;56996;48.138;11.538;2023-08-06T08:40:13;23.66;46.80
69731;SHT31;56996;48.138;11.538;2023-08-06T08:42:41;23.23;47.76
69731;SHT31;56996;48.138;11.538;2023-08-06T08:45:13;22.83;47.30
69731;SHT31;56996;48.138;11.538;2023-08-06T08:47:41;22.33;48.16
69731;SHT31;56996;48.138;11.538;2023-08-06T08:50:14;21.80;48.35
69731;SHT31;56996;48.138;11.538;2023-08-06T08:52:41;21.42;49.79
69731;SHT31;56996;48.138;11.538;2023-08-06T08:55:12;21.40;50.48
69731;SHT31;56996;48.138;11.538;2023-08-06T08:57:41;21.53;50.53
69731;SHT31;56996;48.138;11.538;2023-08-06T09:00:10;21.63;50.25
69731;SHT31;56996;48.138;11.538;2023-08-06T09:02:37;21.49;49.80
69731;SHT31;56996;48.138;11.538;2023-08-06T09:05:06;21.32;50.42
69731;SHT31;56996;48.138;11.538;2023-08-06T09:07:44;21.23;50.37
69731;SHT31;56996;48.138;11.538;2023-08-06T09:10:16;21.15;50.18
69731;SHT31;56996;48.138;11.538;2023-08-06T09:12:44;21.72;49.19
69731;SHT31;56996;48.138;11.538;2023-08-06T09:15:11;21.66;49.38
69731;SHT31;56996;48.138;11.538;2023-08-06T09:17:39;21.31;50.27
69731;SHT31;56996;48.138;11.538;2023-08-06T09:20:12;21.14;50.87
69731;SHT31;56996;48.138;11.538;2023-08-06T09:22:41;20.99;50.41
69731;SHT31;56996;48.138;11.538;2023-08-06T09:25:07;20.74;50.71
69731;SHT31;56996;48.138;11.538;2023-08-06T09:27:36;20.53;50.79
69731;SHT31;56996;48.138;11.538;2023-08-06T09:30:05;20.36;51.32
69731;SHT31;56996;48.138;11.538;2023-08-06T09:33:07;20.25;51.63
69731;SHT31;56996;48.138;11.538;2023-08-06T09:35:30;20.12;52.14
69731;SHT31;56996;48.138;11.538;2023-08-06T09:38:05;20.02;52.44
69731;SHT31;56996;48.138;11.538;2023-08-06T09:40:37;19.86;52.68
69731;SHT31;56996;48.138;11.538;2023-08-06T09:43:04;19.92;52.91
69731;SHT31;56996;48.138;11.538;2023-08-06T09:45:36;19.92;52.76
69731;SHT31;56996;48.138;11.538;2023-08-06T09:48:05;19.91;53.01
69731;SHT31;56996;48.138;11.538;2023-08-06T09:50:37;19.88;52.81
69731;SHT31;56996;48.138;11.538;2023-08-06T09:53:06;19.67;52.54
69731;SHT31;56996;48.138;11.538;2023-08-06T09:55:35;19.44;52.85
69731;SHT31;56996;48.138;11.538;2023-08-06T09:58:02;19.53;53.16
69731;SHT31;56996;48.138;11.538;2023-08-06T10:00:29;19.67;52.71
69731;SHT31;56996;48.138;11.538;2023-08-06T10:02:59;19.74;52.77
69731;SHT31;56996;48.138;11.538;2023-08-06T10:05:27;19.80;52.66
69731;SHT31;56996;48.138;11.538;2023-08-06T10:07:54;19.67;52.84
69731;SHT31;56996;48.138;11.538;2023-08-06T10:10:23;19.58;52.88
69731;SHT31;56996;48.138;11.538;2023-08-06T10:12:52;19.40;52.66
69731;SHT31;56996;48.138;11.538;2023-08-06T10:15:24;19.16;52.95
69731;SHT31;56996;48.138;11.538;2023-08-06T10:17:53;19.05;53.57
69731;SHT31;56996;48.138;11.538;2023-08-06T10:20:23;19.17;53.69
69731;SHT31;56996;48.138;11.538;2023-08-06T10:23:00;19.42;53.17
69731;SHT31;56996;48.138;11.538;2023-08-06T10:25:33;19.65;52.84
69731;SHT31;56996;48.138;11.538;2023-08-06T10:28:08;19.85;52.41
69731;SHT31;56996;48.138;11.538;2023-08-06T10:30:41;20.16;52.22
69731;SHT31;56996;48.138;11.538;2023-08-06T10:33:12;20.51;51.68
69731;SHT31;56996;48.138;11.538;2023-08-06T10:35:43;20.66;51.36
69731;SHT31;56996;48.138;11.538;2023-08-06T10:38:15;20.44;50.86
69731;SHT31;56996;48.138;11.538;2023-08-06T10:43:34;20.07;51.82
69731;SHT31;56996;48.138;11.538;2023-08-06T10:46:10;20.10;51.89
69731;SHT31;56996;48.138;11.538;2023-08-06T10:48:48;20.08;51.77
69731;SHT31;56996;48.138;11.538;2023-08-06T10:51:15;20.08;51.91
69731;SHT31;56996;48.138;11.538;2023-08-06T10:53:43;20.15;51.90
69731;SHT31;56996;48.138;11.538;2023-08-06T10:56:21;20.25;51.82
69731;SHT31;56996;48.138;11.538;2023-08-06T10:58:51;20.45;51.75
69731;SHT31;56996;48.138;11.538;2023-08-06T11:01:24;20.65;51.40
69731;SHT31;56996;48.138;11.538;2023-08-06T11:04:00;20.82;50.96
69731;SHT31;56996;48.138;11.538;2023-08-06T11:06:28;20.95;50.78
69731;SHT31;56996;48.138;11.538;2023-08-06T11:08:55;20.98;50.52
69731;SHT31;56996;48.138;11.538;2023-08-06T11:11:22;21.02;49.68
69731;SHT31;56996;48.138;11.538;2023-08-06T11:13:50;20.99;49.54
69731;SHT31;56996;48.138;11.538;2023-08-06T11:16:19;20.94;49.62
69731;SHT31;56996;48.138;11.538;2023-08-06T11:18:51;20.79;49.79
69731;SHT31;56996;48.138;11.538;2023-08-06T11:21:21;20.63;50.07
69731;SHT31;56996;48.138;11.538;2023-08-06T11:23:48;20.49;50.96
69731;SHT31;56996;48.138;11.538;2023-08-06T11:26:21;20.51;51.00
69731;SHT31;56996;48.138;11.538;2023-08-06T11:28:50;20.50;50.85
69731;SHT31;56996;48.138;11.538;2023-08-06T11:31:23;20.55;50.50
69731;SHT31;56996;48.138;11.538;2023-08-06T11:33:50;20.51;50.72
69731;SHT31;56996;48.138;11.538;2023-08-06T11:36:28;20.55;51.29
69731;SHT31;56996;48.138;11.538;2023-08-06T11:38:59;20.53;51.68
69731;SHT31;56996;48.138;11.538;2023-08-06T11:41:27;20.35;52.77
69731;SHT31;56996;48.138;11.538;2023-08-06T11:43:55;20.05;52.79
69731;SHT31;56996;48.138;11.538;2023-08-06T11:46:22;19.87;52.81
69731;SHT31;56996;48.138;11.538;2023-08-06T11:48:53;19.77;53.01
69731;SHT31;56996;48.138;11.538;2023-08-06T11:51:27;19.92;52.63
69731;SHT31;56996;48.138;11.538;2023-08-06T11:53:58;20.22;52.01
69731;SHT31;56996;48.138;11.538;2023-08-06T11:56:25;20.33;51.78
69731;SHT31;56996;48.138;11.538;2023-08-06T11:58:54;20.34;51.52
69731;SHT31;56996;48.138;11.538;2023-08-06T12:01:22;20.32;51.62
69731;SHT31;56996;48.138;11.538;2023-08-06T12:03:48;20.28;51.83
69731;SHT31;56996;48.138;11.538;2023-08-06T12:06:15;20.34;51.97
69731;SHT31;56996;48.138;11.538;2023-08-06T12:08:42;20.50;51.71
69731;SHT31;56996;48.138;11.538;2023-08-06T12:11:09;20.40;51.68
69731;SHT31;56996;48.138;11.538;2023-08-06T12:13:35;20.24;51.91
69731;SHT31;56996;48.138;11.538;2023-08-06T12:16:02;20.19;52.12
69731;SHT31;56996;48.138;11.538;2023-08-06T12:18:29;20.29;52.33
69731;SHT31;56996;48.138;11.538;2023-08-06T12:20:55;20.24;51.81
69731;SHT31;56996;48.138;11.538;2023-08-06T12:23:22;19.98;52.64
69731;SHT31;56996;48.138;11.538;2023-08-06T12:25:49;19.99;52.83
69731;SHT31;56996;48.138;11.538;2023-08-06T12:28:16;19.91;52.84
69731;SHT31;56996;48.138;11.538;2023-08-06T12:30:42;19.78;53.07
69731;SHT31;56996;48.138;11.538;2023-08-06T12:33:11;19.62;53.43
69731;SHT31;56996;48.138;11.538;2023-08-06T12:35:37;19.54;53.41
69731;SHT31;56996;48.138;11.538;2023-08-06T12:38:04;19.47;53.74
69731;SHT31;56996;48.138;11.538;2023-08-06T12:40:31;19.35;54.31
69731;SHT31;56996;48.138;11.538;2023-08-06T12:43:04;19.05;56.64
69731;SHT31;56996;48.138;11.538;2023-08-06T12:45:31;18.76;57.91
69731;SHT31;56996;48.138;11.538;2023-08-06T12:47:57;18.50;59.21
69731;SHT31;56996;48.138;11.538;2023-08-06T12:50:24;18.33;59.38
69731;SHT31;56996;48.138;11.538;2023-08-06T12:52:51;18.19;59.81
69731;SHT31;56996;48.138;11.538;2023-08-06T12:55:18;18.23;59.77
69731;SHT31;56996;48.138;11.538;2023-08-06T12:57:44;18.43;59.88
69731;SHT31;56996;48.138;11.538;2023-08-06T13:00:24;18.61;59.14
69731;SHT31;56996;48.138;11.538;2023-08-06T13:02:52;18.73;58.66
69731;SHT31;56996;48.138;11.538;2023-08-06T13:05:19;18.91;57.79
69731;SHT31;56996;48.138;11.538;2023-08-06T13:07:46;19.06;57.54
69731;SHT31;56996;48.138;11.538;2023-08-06T13:10:13;19.19;57.02
69731;SHT31;56996;48.138;11.538;2023-08-06T13:12:40;19.33;56.86
69731;SHT31;56996;48.138;11.538;2023-08-06T13:15:06;19.46;56.53
69731;SHT31;56996;48.138;11.538;2023-08-06T13:17:34;19.48;56.42
69731;SHT31;56996;48.138;11.538;2023-08-06T13:20:01;19.40;57.15
69731;SHT31;56996;48.138;11.538;2023-08-06T13:22:27;19.18;58.43
69731;SHT31;56996;48.138;11.538;2023-08-06T13:24:54;19.05;59.61
69731;SHT31;56996;48.138;11.538;2023-08-06T13:27:20;18.93;60.41
69731;SHT31;56996;48.138;11.538;2023-08-06T13:29:47;18.68;60.86
69731;SHT31;56996;48.138;11.538;2023-08-06T13:32:14;18.52;61.51
69731;SHT31;56996;48.138;11.538;2023-08-06T13:34:40;18.36;61.60
69731;SHT31;56996;48.138;11.538;2023-08-06T13:37:07;18.20;62.02
69731;SHT31;56996;48.138;11.538;2023-08-06T13:39:34;18.12;62.14
69731;SHT31;56996;48.138;11.538;2023-08-06T13:42:00;18.26;62.40
69731;SHT31;56996;48.138;11.538;2023-08-06T13:44:27;18.25;62.09
69731;SHT31;56996;48.138;11.538;2023-08-06T13:46:55;18.15;62.28
69731;SHT31;56996;48.138;11.538;2023-08-06T13:49:22;18.16;62.30
69731;SHT31;56996;48.138;11.538;2023-08-06T13:51:49;18.17;62.72
69731;SHT31;56996;48.138;11.538;2023-08-06T13:54:15;18.22;63.14
69731;SHT31;56996;48.138;11.538;2023-08-06T13:56:43;18.11;63.16
69731;SHT31;56996;48.138;11.538;2023-08-06T13:59:09;18.02;63.56
69731;SHT31;56996;48.138;11.538;2023-08-06T14:01:40;18.01;63.80
69731;SHT31;56996;48.138;11.538;2023-08-06T14:04:17;17.91;63.78
69731;SHT31;56996;48.138;11.538;2023-08-06T14:06:44;17.82;63.99
69731;SHT31;56996;48.138;11.538;2023-08-06T14:09:10;17.70;64.40
69731;SHT31;56996;48.138;11.538;2023-08-06T14:11:40;17.60;64.93
69731;SHT31;56996;48.138;11.538;2023-08-06T14:14:07;17.44;65.56
69731;SHT31;56996;48.138;11.538;2023-08-06T14:16:34;17.41;65.88
69731;SHT31;56996;48.138;11.538;2023-08-06T14:19:01;17.38;66.32
69731;SHT31;56996;48.138;11.538;2023-08-06T14:21:29;17.32;66.45
69731;SHT31;56996;48.138;11.538;2023-08-06T14:23:56;17.25;66.65
69731;SHT31;56996;48.138;11.538;2023-08-06T14:26:22;17.23;66.33
69731;SHT31;56996;48.138;11.538;2023-08-06T14:28:49;17.12;66.90
69731;SHT31;56996;48.138;11.538;2023-08-06T14:31:20;17.05;67.10
69731;SHT31;56996;48.138;11.538;2023-08-06T14:33:47;17.08;67.30
69731;SHT31;56996;48.138;11.538;2023-08-06T14:36:14;17.09;67.26
69731;SHT31;56996;48.138;11.538;2023-08-06T14:38:40;17.08;67.65
69731;SHT31;56996;48.138;11.538;2023-08-06T14:41:24;17.06;67.99
69731;SHT31;56996;48.138;11.538;2023-08-06T14:43:51;17.03;67.93
69731;SHT31;56996;48.138;11.538;2023-08-06T14:46:18;16.95;68.08
69731;SHT31;56996;48.138;11.538;2023-08-06T14:48:45;16.87;68.21
69731;SHT31;56996;48.138;11.538;2023-08-06T14:51:11;16.75;68.62
69731;SHT31;56996;48.138;11.538;2023-08-06T14:53:38;16.61;69.11
69731;SHT31;56996;48.138;11.538;2023-08-06T14:56:05;16.55;69.33
69731;SHT31;56996;48.138;11.538;2023-08-06T14:58:32;16.50;69.50
69731;SHT31;56996;48.138;11.538;2023-08-06T15:00:59;16.44;69.60
69731;SHT31;56996;48.138;11.538;2023-08-06T15:03:25;16.41;69.40
69731;SHT31;56996;48.138;11.538;2023-08-06T15:05:54;16.36;69.72
69731;SHT31;56996;48.138;11.538;2023-08-06T15:08:21;16.33;69.64
69731;SHT31;56996;48.138;11.538;2023-08-06T15:10:51;16.31;69.80
69731;SHT31;56996;48.138;11.538;2023-08-06T15:13:19;16.24;70.00
69731;SHT31;56996;48.138;11.538;2023-08-06T15:15:46;16.23;70.30
69731;SHT31;56996;48.138;11.538;2023-08-06T15:18:14;16.31;70.33
69731;SHT31;56996;48.138;11.538;2023-08-06T15:20:41;16.41;70.41
69731;SHT31;56996;48.138;11.538;2023-08-06T15:23:08;16.45;70.19
69731;SHT31;56996;48.138;11.538;2023-08-06T15:25:35;16.36;70.24
69731;SHT31;56996;48.138;11.538;2023-08-06T15:28:01;16.36;70.06
69731;SHT31;56996;48.138;11.538;2023-08-06T15:30:28;16.36;69.96
69731;SHT31;56996;48.138;11.538;2023-08-06T15:32:55;16.28;70.19